Time;durP1;ratioP1;P1;durP2;ratioP2;P2;SDS_P1;SDS_P2;PMS_P1;PMS_P2;Temp;Humidity;BMP_temperature;BMP_pressure;BME280_temperature;BME280_humidity;BME280_pressure;Samples;Min_cycle;Max_cycle;Signal;HPM_P1;HPM_P2
2024/03/27 00:02:06;;;;;;;8.23;7.43;;;;;;;;;;4977762;28;20237;-87
2024/03/27 00:04:32;;;;;;;8.33;7.53;;;;;;;;;;4997173;28;20695;-88
2024/03/27 00:06:58;;;;;;;8.37;7.37;;;;;;;;;;4994641;28;20291;-87
2024/03/27 00:09:23;;;;;;;8.73;7.27;;;;;;;;;;4964410;28;20213;-87
2024/03/27 00:11:51;;;;;;;8.50;7.67;;;;;;;;;;4996887;28;20308;-88
2024/03/27 00:14:17;;;;;;;8.73;7.00;;;;;;;;;;4999465;28;20615;-87
2024/03/27 00:16:44;;;;;;;8.20;7.30;;;;;;;;;;5009013;28;20226;-87
2024/03/27 00:19:10;;;;;;;10.27;7.00;;;;;;;;;;4996671;28;20230;-88
2024/03/27 00:21:36;;;;;;;7.87;6.67;;;;;;;;;;4979919;28;20221;-87
2024/03/27 00:24:01;;;;;;;8.47;7.33;;;;;;;;;;5003785;28;20228;-88
2024/03/27 00:26:27;;;;;;;7.50;6.70;;;;;;;;;;4961667;28;20222;-87
2024/03/27 00:28:52;;;;;;;8.17;7.07;;;;;;;;;;4993032;28;20235;-88
2024/03/27 00:31:18;;;;;;;9.97;7.47;;;;;;;;;;4963180;28;20499;-88
2024/03/27 00:33:43;;;;;;;8.27;7.47;;;;;;;;;;4994859;28;20281;-88
2024/03/27 00:36:09;;;;;;;9.80;7.30;;;;;;;;;;4991378;28;20240;-88
2024/03/27 00:38:35;;;;;;;8.47;7.67;;;;;;;;;;4992983;28;20226;-88
2024/03/27 00:41:03;;;;;;;7.83;7.03;;;;;;;;;;4992378;28;20292;-87
2024/03/27 00:43:31;;;;;;;8.17;7.37;;;;;;;;;;4995965;28;20648;-86
2024/03/27 00:45:56;;;;;;;8.97;7.70;;;;;;;;;;4963546;28;20234;-87
2024/03/27 00:48:24;;;;;;;8.53;7.63;;;;;;;;;;4993107;28;20330;-87
2024/03/27 00:50:49;;;;;;;8.20;7.40;;;;;;;;;;4991562;28;20218;-87
2024/03/27 00:53:15;;;;;;;8.20;7.23;;;;;;;;;;4993279;28;20226;-88
2024/03/27 00:55:40;;;;;;;9.03;7.80;;;;;;;;;;4959356;28;20316;-88
2024/03/27 00:58:06;;;;;;;8.60;7.70;;;;;;;;;;5010487;28;20224;-87
2024/03/27 01:00:32;;;;;;;9.17;8.27;;;;;;;;;;4994436;28;20221;-88
2024/03/27 01:03:00;;;;;;;12.03;8.03;;;;;;;;;;4979259;28;20226;-88
2024/03/27 01:05:28;;;;;;;13.57;8.10;;;;;;;;;;4996802;28;20227;-88
2024/03/27 01:07:54;;;;;;;9.63;8.17;;;;;;;;;;4983573;28;20298;-88
2024/03/27 01:10:19;;;;;;;8.53;7.73;;;;;;;;;;4979552;28;20224;-87
2024/03/27 01:12:45;;;;;;;9.13;8.13;;;;;;;;;;4962613;28;20221;-87
2024/03/27 01:15:11;;;;;;;9.07;7.80;;;;;;;;;;4962247;28;20586;-86
2024/03/27 01:17:39;;;;;;;10.40;8.43;;;;;;;;;;4994375;28;20277;-86
2024/03/27 01:20:05;;;;;;;9.60;8.60;;;;;;;;;;4982315;28;20210;-87
2024/03/27 01:22:31;;;;;;;10.13;8.60;;;;;;;;;;4982148;28;20301;-86
2024/03/27 01:24:59;;;;;;;9.13;7.97;;;;;;;;;;5012272;28;20289;-86
2024/03/27 01:27:24;;;;;;;10.17;8.13;;;;;;;;;;5000449;28;20311;-88
2024/03/27 01:29:50;;;;;;;9.17;8.27;;;;;;;;;;4989449;28;20213;-88
2024/03/27 01:32:15;;;;;;;10.87;8.97;;;;;;;;;;5010068;28;20221;-87
2024/03/27 01:34:43;;;;;;;9.57;8.43;;;;;;;;;;5000889;28;20214;-87
2024/03/27 01:37:14;;;;;;;9.47;8.07;;;;;;;;;;4972388;28;20236;-88
2024/03/27 01:39:42;;;;;;;9.43;8.40;;;;;;;;;;4975439;28;20310;-86
2024/03/27 01:42:07;;;;;;;9.77;8.70;;;;;;;;;;4979113;28;20222;-86
2024/03/27 01:44:38;;;;;;;10.17;8.60;;;;;;;;;;4994583;28;20233;-88
2024/03/27 01:47:03;;;;;;;9.67;8.70;;;;;;;;;;4990164;28;20225;-88
2024/03/27 01:49:29;;;;;;;9.83;8.83;;;;;;;;;;4990360;28;20219;-87
2024/03/27 01:51:55;;;;;;;9.77;8.73;;;;;;;;;;5011239;28;20601;-88
2024/03/27 01:54:20;;;;;;;9.83;8.83;;;;;;;;;;4979073;28;20225;-87
2024/03/27 01:56:46;;;;;;;9.50;8.50;;;;;;;;;;4961229;28;20845;-88
2024/03/27 01:59:12;;;;;;;9.57;8.67;;;;;;;;;;4984598;28;20229;-88
2024/03/27 02:01:42;;;;;;;9.53;8.40;;;;;;;;;;5003228;28;20222;-87
2024/03/27 02:04:10;;;;;;;9.30;8.40;;;;;;;;;;4991249;28;20217;-88
2024/03/27 02:06:36;;;;;;;10.03;8.83;;;;;;;;;;4991334;28;20225;-88
2024/03/27 02:09:02;;;;;;;11.77;9.00;;;;;;;;;;5011974;28;20260;-87
2024/03/27 02:11:28;;;;;;;12.10;9.50;;;;;;;;;;5012463;28;20206;-86
2024/03/27 02:13:53;;;;;;;9.93;8.93;;;;;;;;;;4999753;28;20206;-87
2024/03/27 02:16:20;;;;;;;9.57;8.57;;;;;;;;;;5015322;28;20300;-86
2024/03/27 02:18:45;;;;;;;10.77;9.67;;;;;;;;;;4997897;28;20237;-86
2024/03/27 02:21:11;;;;;;;11.63;9.40;;;;;;;;;;5011241;28;20217;-87
2024/03/27 02:23:45;;;;;;;11.40;9.17;;;;;;;;;;4983404;28;20218;-86
2024/03/27 02:26:15;;;;;;;10.33;9.33;;;;;;;;;;5007166;28;20315;-88
2024/03/27 02:28:43;;;;;;;11.13;8.90;;;;;;;;;;4983144;28;20823;-87
2024/03/27 02:31:08;;;;;;;10.30;9.10;;;;;;;;;;4978424;28;20230;-87
2024/03/27 02:33:36;;;;;;;12.00;9.00;;;;;;;;;;4984040;28;20231;-87
2024/03/27 02:36:02;;;;;;;11.20;9.73;;;;;;;;;;4979946;28;20248;-88
2024/03/27 02:38:28;;;;;;;10.17;9.17;;;;;;;;;;4988117;28;20221;-87
2024/03/27 02:40:53;;;;;;;10.90;9.37;;;;;;;;;;4984311;28;20276;-88
2024/03/27 02:43:19;;;;;;;12.20;9.37;;;;;;;;;;4988929;28;20219;-86
2024/03/27 02:45:47;;;;;;;10.70;9.60;;;;;;;;;;5017282;28;20222;-87
2024/03/27 02:48:14;;;;;;;10.00;8.97;;;;;;;;;;4978816;28;20233;-87
2024/03/27 02:50:39;;;;;;;10.27;9.27;;;;;;;;;;5014013;28;20697;-89
2024/03/27 02:53:05;;;;;;;12.20;10.30;;;;;;;;;;4977237;28;20217;-87
2024/03/27 02:55:30;;;;;;;10.57;9.47;;;;;;;;;;4992528;28;20218;-87
2024/03/27 02:57:58;;;;;;;10.80;9.70;;;;;;;;;;4993988;28;20239;-88
2024/03/27 03:00:24;;;;;;;10.97;9.73;;;;;;;;;;4994061;28;20546;-88
2024/03/27 03:02:49;;;;;;;10.97;9.80;;;;;;;;;;4977511;28;20217;-87
2024/03/27 03:05:15;;;;;;;14.43;10.40;;;;;;;;;;4977411;28;20235;-87
2024/03/27 03:07:41;;;;;;;11.93;10.30;;;;;;;;;;4989224;28;20217;-88
2024/03/27 03:10:07;;;;;;;12.43;10.07;;;;;;;;;;4980644;28;20216;-86
2024/03/27 03:12:32;;;;;;;12.57;9.97;;;;;;;;;;5017307;28;20210;-85
2024/03/27 03:15:01;;;;;;;12.20;9.60;;;;;;;;;;4986760;28;20224;-86
2024/03/27 03:17:26;;;;;;;11.30;10.20;;;;;;;;;;4989717;28;20226;-86
2024/03/27 03:19:52;;;;;;;12.17;10.13;;;;;;;;;;4986050;28;20707;-86
2024/03/27 03:22:20;;;;;;;11.17;9.70;;;;;;;;;;4962736;28;20249;-86
2024/03/27 03:24:45;;;;;;;11.27;9.60;;;;;;;;;;4961685;28;20214;-87
2024/03/27 03:27:11;;;;;;;12.03;9.80;;;;;;;;;;4979759;28;20729;-87
2024/03/27 03:29:36;;;;;;;11.20;10.00;;;;;;;;;;4969482;28;20221;-87
2024/03/27 03:32:02;;;;;;;12.40;9.70;;;;;;;;;;4979830;28;20229;-87
2024/03/27 03:34:28;;;;;;;11.13;9.87;;;;;;;;;;4981880;28;20218;-87
2024/03/27 03:36:57;;;;;;;11.97;9.97;;;;;;;;;;4969113;28;20233;-88
2024/03/27 03:39:25;;;;;;;11.57;10.37;;;;;;;;;;5006585;28;20225;-85
2024/03/27 03:41:51;;;;;;;11.03;9.93;;;;;;;;;;4977233;28;20249;-86
2024/03/27 03:44:16;;;;;;;12.17;9.90;;;;;;;;;;4979439;28;20328;-87
2024/03/27 03:46:42;;;;;;;11.70;10.50;;;;;;;;;;4964736;28;20221;-87
2024/03/27 03:49:07;;;;;;;11.63;9.97;;;;;;;;;;4977440;28;20237;-86
2024/03/27 03:51:33;;;;;;;12.63;10.07;;;;;;;;;;4985474;28;20222;-87
2024/03/27 03:53:59;;;;;;;11.97;10.50;;;;;;;;;;4994930;28;20909;-87
2024/03/27 03:56:28;;;;;;;12.50;10.60;;;;;;;;;;4978321;28;20597;-87
2024/03/27 04:02:43;;;;;;;11.53;10.07;;;;;;;;;;4991055;28;20233;-88
2024/03/27 04:05:11;;;;;;;12.73;10.47;;;;;;;;;;4971696;28;20225;-89
2024/03/27 04:07:39;;;;;;;11.93;10.13;;;;;;;;;;5003429;28;20226;-88
2024/03/27 04:10:05;;;;;;;12.07;10.23;;;;;;;;;;4962238;28;20226;-87
2024/03/27 04:12:33;;;;;;;11.63;10.43;;;;;;;;;;4955264;28;20233;-87
2024/03/27 04:14:58;;;;;;;14.53;10.70;;;;;;;;;;4978901;28;20240;-87
2024/03/27 04:17:24;;;;;;;11.27;9.97;;;;;;;;;;4961933;28;20687;-87
2024/03/27 04:19:50;;;;;;;12.63;10.63;;;;;;;;;;5004048;28;20225;-87
2024/03/27 04:22:21;;;;;;;11.50;9.87;;;;;;;;;;4962745;28;20332;-87
2024/03/27 04:24:48;;;;;;;11.37;10.20;;;;;;;;;;4969648;28;20279;-88
2024/03/27 04:27:14;;;;;;;11.77;9.80;;;;;;;;;;4971273;28;20228;-88
2024/03/27 04:29:42;;;;;;;12.63;11.27;;;;;;;;;;4952481;28;20228;-87
2024/03/27 04:32:10;;;;;;;11.67;10.00;;;;;;;;;;4962440;28;20226;-87
2024/03/27 04:34:37;;;;;;;11.57;10.07;;;;;;;;;;4977280;28;20227;-88
2024/03/27 04:37:03;;;;;;;11.73;10.07;;;;;;;;;;4947328;28;20237;-87
2024/03/27 04:39:28;;;;;;;11.50;10.30;;;;;;;;;;5005654;28;20217;-87
2024/03/27 04:41:54;;;;;;;11.10;9.93;;;;;;;;;;4956827;28;20271;-88
2024/03/27 04:44:20;;;;;;;11.87;10.00;;;;;;;;;;4975269;28;20226;-88
2024/03/27 04:46:50;;;;;;;12.27;10.40;;;;;;;;;;4999631;28;20217;-80
2024/03/27 04:49:20;;;;;;;12.50;10.57;;;;;;;;;;5002380;28;20225;-79
2024/03/27 04:51:48;;;;;;;13.13;10.30;;;;;;;;;;5002093;28;20330;-78
2024/03/27 04:54:14;;;;;;;11.17;9.90;;;;;;;;;;4986061;28;20221;-80
2024/03/27 04:56:39;;;;;;;11.30;10.10;;;;;;;;;;4998326;28;20244;-79
2024/03/27 04:59:05;;;;;;;11.87;10.23;;;;;;;;;;4971335;28;20230;-79
2024/03/27 05:01:30;;;;;;;11.77;10.57;;;;;;;;;;4988624;28;20221;-80
2024/03/27 05:03:58;;;;;;;11.57;10.37;;;;;;;;;;4996770;28;20225;-79
2024/03/27 05:06:24;;;;;;;12.57;10.23;;;;;;;;;;5000185;28;20283;-78
2024/03/27 05:08:52;;;;;;;10.97;9.87;;;;;;;;;;4972228;28;20627;-78
2024/03/27 05:11:20;;;;;;;11.80;10.60;;;;;;;;;;4973164;28;20229;-79
2024/03/27 05:13:45;;;;;;;11.53;10.20;;;;;;;;;;4980472;28;20645;-78
2024/03/27 05:16:12;;;;;;;12.93;10.10;;;;;;;;;;4987559;28;20240;-78
2024/03/27 05:18:41;;;;;;;11.43;10.23;;;;;;;;;;4999426;28;20229;-79
2024/03/27 05:21:08;;;;;;;13.40;10.30;;;;;;;;;;4968530;28;20252;-78
2024/03/27 05:23:36;;;;;;;11.23;10.03;;;;;;;;;;4996143;28;20304;-78
2024/03/27 05:26:08;;;;;;;11.73;10.27;;;;;;;;;;4989573;28;20232;-78
2024/03/27 05:28:34;;;;;;;12.47;10.97;;;;;;;;;;4976523;28;20229;-79
2024/03/27 05:31:02;;;;;;;12.13;9.50;;;;;;;;;;5024012;28;20239;-78
2024/03/27 05:33:29;;;;;;;11.93;10.47;;;;;;;;;;5002969;28;20225;-78
2024/03/27 05:35:55;;;;;;;12.03;9.87;;;;;;;;;;4989166;28;20225;-78
2024/03/27 05:38:21;;;;;;;11.97;10.10;;;;;;;;;;4974699;28;20714;-77
2024/03/27 05:40:46;;;;;;;11.30;10.20;;;;;;;;;;5016831;28;20205;-78
2024/03/27 05:43:12;;;;;;;11.37;10.27;;;;;;;;;;4979623;28;20244;-78
2024/03/27 05:45:38;;;;;;;11.03;9.90;;;;;;;;;;4981122;28;20228;-78
2024/03/27 05:48:03;;;;;;;13.70;10.63;;;;;;;;;;5003063;28;20202;-78
2024/03/27 05:50:32;;;;;;;12.00;10.80;;;;;;;;;;4999945;28;20232;-79
2024/03/27 05:53:00;;;;;;;11.50;10.23;;;;;;;;;;5004349;28;20758;-78
2024/03/27 05:55:26;;;;;;;12.30;10.57;;;;;;;;;;5012395;28;20237;-79
2024/03/27 05:57:51;;;;;;;13.53;10.40;;;;;;;;;;4999343;28;20232;-78
2024/03/27 06:00:20;;;;;;;11.13;9.80;;;;;;;;;;4982408;28;20786;-78
2024/03/27 06:02:45;;;;;;;13.20;10.63;;;;;;;;;;5010547;28;20232;-79
2024/03/27 06:05:14;;;;;;;12.80;11.17;;;;;;;;;;4973977;28;20213;-79
2024/03/27 06:07:40;;;;;;;15.17;11.90;;;;;;;;;;4988400;28;20232;-78
2024/03/27 06:10:06;;;;;;;13.83;12.33;;;;;;;;;;4993019;28;20229;-78
2024/03/27 06:12:32;;;;;;;15.37;12.10;;;;;;;;;;5000786;28;20233;-79
2024/03/27 06:14:59;;;;;;;14.47;11.90;;;;;;;;;;4988514;28;20282;-78
2024/03/27 06:17:25;;;;;;;13.33;11.30;;;;;;;;;;4969397;28;20237;-79
2024/03/27 06:19:50;;;;;;;12.40;11.10;;;;;;;;;;4985528;28;20894;-78
2024/03/27 06:22:16;;;;;;;11.27;10.07;;;;;;;;;;4983612;28;20252;-78
2024/03/27 06:24:44;;;;;;;14.73;10.37;;;;;;;;;;4969613;28;20226;-79
2024/03/27 06:27:15;;;;;;;12.67;10.37;;;;;;;;;;4976712;28;20221;-78
2024/03/27 06:29:40;;;;;;;12.33;10.97;;;;;;;;;;4955636;28;20248;-78
2024/03/27 06:32:06;;;;;;;12.77;11.03;;;;;;;;;;4974223;28;20758;-78
2024/03/27 06:34:34;;;;;;;12.33;10.63;;;;;;;;;;4953823;28;20237;-78
2024/03/27 06:36:59;;;;;;;11.87;10.03;;;;;;;;;;4968626;28;20685;-79
2024/03/27 06:39:25;;;;;;;11.57;10.37;;;;;;;;;;4999067;28;20233;-80
2024/03/27 06:41:50;;;;;;;11.63;10.10;;;;;;;;;;4986838;28;20222;-79
2024/03/27 06:44:16;;;;;;;11.57;10.03;;;;;;;;;;4969437;28;20236;-79
2024/03/27 06:46:45;;;;;;;12.40;9.40;;;;;;;;;;4957553;28;20316;-80
2024/03/27 06:49:18;;;;;;;10.87;9.57;;;;;;;;;;4989045;28;20225;-79
2024/03/27 06:51:50;;;;;;;10.33;9.33;;;;;;;;;;4998420;28;20225;-79
2024/03/27 06:54:21;;;;;;;10.57;9.17;;;;;;;;;;4989889;28;20243;-80
2024/03/27 06:56:49;;;;;;;10.60;9.50;;;;;;;;;;4976304;28;20714;-79
2024/03/27 06:59:17;;;;;;;10.83;9.73;;;;;;;;;;5009797;28;20218;-79
2024/03/27 07:01:46;;;;;;;11.07;9.50;;;;;;;;;;4999394;28;20230;-79
2024/03/27 07:04:15;;;;;;;11.50;9.30;;;;;;;;;;4974550;28;20228;-79
2024/03/27 07:06:40;;;;;;;11.93;9.67;;;;;;;;;;4998612;28;20245;-80
2024/03/27 07:09:08;;;;;;;10.40;9.30;;;;;;;;;;4954818;28;20775;-80
2024/03/27 07:11:36;;;;;;;10.67;9.57;;;;;;;;;;5005456;28;20225;-79
2024/03/27 07:14:01;;;;;;;9.83;8.83;;;;;;;;;;4986174;28;20821;-79
2024/03/27 07:16:27;;;;;;;10.47;8.73;;;;;;;;;;5002575;28;20237;-79
2024/03/27 07:18:55;;;;;;;10.37;9.37;;;;;;;;;;4984352;28;20234;-79
2024/03/27 07:21:25;;;;;;;9.70;8.60;;;;;;;;;;4987465;28;20741;-79
2024/03/27 07:23:51;;;;;;;9.73;8.73;;;;;;;;;;5001343;28;20703;-79
2024/03/27 07:26:19;;;;;;;9.60;8.60;;;;;;;;;;4995855;28;20233;-81
2024/03/27 07:28:44;;;;;;;11.40;8.97;;;;;;;;;;5003219;28;20236;-79
2024/03/27 07:31:10;;;;;;;11.30;9.43;;;;;;;;;;4988017;28;20315;-79
2024/03/27 07:33:38;;;;;;;10.73;8.70;;;;;;;;;;4997246;28;20228;-80
2024/03/27 07:36:04;;;;;;;10.23;8.80;;;;;;;;;;5001844;28;20261;-80
2024/03/27 07:38:29;;;;;;;9.10;8.20;;;;;;;;;;4984718;28;20839;-81
2024/03/27 07:40:57;;;;;;;9.33;8.33;;;;;;;;;;4998868;28;20233;-79
2024/03/27 07:43:22;;;;;;;9.63;8.20;;;;;;;;;;4972001;28;20229;-79
2024/03/27 07:45:53;;;;;;;9.50;8.50;;;;;;;;;;4982086;28;20558;-79
2024/03/27 07:48:18;;;;;;;9.60;8.60;;;;;;;;;;4995740;28;20694;-80
2024/03/27 07:50:44;;;;;;;8.57;7.70;;;;;;;;;;4997800;28;20237;-80
2024/03/27 07:53:09;;;;;;;9.33;7.83;;;;;;;;;;4983142;28;20226;-80
2024/03/27 07:55:35;;;;;;;8.63;7.73;;;;;;;;;;4983638;28;20624;-80
2024/03/27 07:58:00;;;;;;;8.77;7.50;;;;;;;;;;4967547;28;20237;-80
2024/03/27 08:00:26;;;;;;;8.43;7.60;;;;;;;;;;4965479;28;20229;-78
2024/03/27 08:02:52;;;;;;;8.53;7.73;;;;;;;;;;4981225;28;20226;-80
2024/03/27 08:05:23;;;;;;;8.03;7.30;;;;;;;;;;4955667;28;20778;-80
2024/03/27 08:07:48;;;;;;;9.00;7.53;;;;;;;;;;4983138;28;20226;-80
2024/03/27 08:10:14;;;;;;;8.20;7.40;;;;;;;;;;4987448;28;20228;-79
2024/03/27 08:12:40;;;;;;;8.70;6.90;;;;;;;;;;4966750;28;20669;-79
2024/03/27 08:15:09;;;;;;;7.53;6.83;;;;;;;;;;4947727;28;20221;-80
2024/03/27 08:17:37;;;;;;;7.37;6.53;;;;;;;;;;4967122;28;20233;-79
2024/03/27 08:20:05;;;;;;;8.87;7.20;;;;;;;;;;4993891;28;20236;-79
2024/03/27 08:22:33;;;;;;;7.70;7.00;;;;;;;;;;4967019;28;20222;-79
2024/03/27 08:24:59;;;;;;;7.97;7.17;;;;;;;;;;4988220;28;20876;-79
2024/03/27 08:27:24;;;;;;;7.90;7.10;;;;;;;;;;4967109;28;20229;-80
2024/03/27 08:29:50;;;;;;;7.47;6.77;;;;;;;;;;4985027;28;20221;-79
2024/03/27 08:32:15;;;;;;;8.03;7.13;;;;;;;;;;4969554;28;20230;-79
2024/03/27 08:34:46;;;;;;;7.17;6.47;;;;;;;;;;4965644;28;20221;-78
2024/03/27 08:37:13;;;;;;;7.57;6.83;;;;;;;;;;4999363;28;20225;-79
2024/03/27 08:39:42;;;;;;;10.77;6.83;;;;;;;;;;4999257;28;20244;-78
2024/03/27 08:42:07;;;;;;;7.97;7.17;;;;;;;;;;4997142;28;20276;-79
2024/03/27 08:44:33;;;;;;;7.37;6.67;;;;;;;;;;4978660;28;20225;-79
2024/03/27 08:46:58;;;;;;;7.73;6.90;;;;;;;;;;4960670;28;20241;-79
2024/03/27 08:49:27;;;;;;;7.53;6.83;;;;;;;;;;4970316;28;20222;-80
2024/03/27 08:51:53;;;;;;;7.03;6.37;;;;;;;;;;4983153;28;20240;-79
2024/03/27 08:54:18;;;;;;;6.93;6.13;;;;;;;;;;4986681;28;20605;-80
2024/03/27 08:56:46;;;;;;;6.50;5.90;;;;;;;;;;4963961;28;20471;-79
2024/03/27 08:59:11;;;;;;;6.90;6.20;;;;;;;;;;4979039;28;20605;-79
2024/03/27 09:01:37;;;;;;;7.17;6.33;;;;;;;;;;4985919;28;20229;-79
2024/03/27 09:04:05;;;;;;;7.10;6.40;;;;;;;;;;4982234;28;20221;-79
2024/03/27 09:06:31;;;;;;;6.60;5.87;;;;;;;;;;4997141;28;20658;-79
2024/03/27 09:08:59;;;;;;;6.20;5.70;;;;;;;;;;4981091;28;20222;-79
2024/03/27 09:11:29;;;;;;;6.73;5.50;;;;;;;;;;4987117;28;20218;-79
2024/03/27 09:13:55;;;;;;;5.67;5.17;;;;;;;;;;4979593;28;20291;-79
2024/03/27 09:16:20;;;;;;;7.73;5.33;;;;;;;;;;4995289;28;20221;-79
2024/03/27 09:18:48;;;;;;;6.00;5.40;;;;;;;;;;4981920;28;20230;-79
2024/03/27 09:21:13;;;;;;;5.30;4.80;;;;;;;;;;4981625;28;20732;-80
2024/03/27 09:23:41;;;;;;;5.60;5.00;;;;;;;;;;4978638;28;20229;-80
2024/03/27 09:26:10;;;;;;;6.60;4.80;;;;;;;;;;4998242;28;20291;-79
2024/03/27 09:28:35;;;;;;;4.87;4.47;;;;;;;;;;4971942;28;20250;-80
2024/03/27 09:31:07;;;;;;;5.57;4.55;;;;;;;;;;4970297;28;20240;-80
2024/03/27 09:33:32;;;;;;;5.28;4.78;;;;;;;;;;4962023;28;20693;-80
2024/03/27 09:36:02;;;;;;;4.72;4.22;;;;;;;;;;4979618;28;20233;-81
2024/03/27 09:38:28;;;;;;;4.70;4.05;;;;;;;;;;5001698;28;20312;-79
2024/03/27 09:40:57;;;;;;;5.18;4.50;;;;;;;;;;4964600;28;20407;-79
2024/03/27 09:43:23;;;;;;;5.28;4.55;;;;;;;;;;4968435;28;20308;-79
2024/03/27 09:45:54;;;;;;;5.85;4.80;;;;;;;;;;4964812;28;20230;-80
2024/03/27 09:48:20;;;;;;;5.65;4.55;;;;;;;;;;4979991;28;20214;-79
2024/03/27 09:50:45;;;;;;;4.35;3.90;;;;;;;;;;4996986;28;20276;-80
2024/03/27 09:53:11;;;;;;;4.93;3.90;;;;;;;;;;4957520;28;20232;-79
2024/03/27 09:55:39;;;;;;;4.38;3.88;;;;;;;;;;4980081;28;20312;-80
2024/03/27 09:58:11;;;;;;;6.85;4.30;;;;;;;;;;4980847;28;20395;-78
2024/03/27 10:00:39;;;;;;;6.85;4.32;;;;;;;;;;4966347;28;20229;-78
2024/03/27 10:03:07;;;;;;;5.20;3.90;;;;;;;;;;4966221;28;20213;-80
2024/03/27 10:05:34;;;;;;;5.15;4.07;;;;;;;;;;4971089;28;20302;-79
2024/03/27 10:08:03;;;;;;;4.15;3.70;;;;;;;;;;4998058;28;20304;-79
2024/03/27 10:10:31;;;;;;;4.40;4.00;;;;;;;;;;4990474;28;20224;-78
2024/03/27 10:12:59;;;;;;;4.68;4.22;;;;;;;;;;4999758;28;20285;-79
2024/03/27 10:15:26;;;;;;;4.80;4.30;;;;;;;;;;4968606;28;20222;-80
2024/03/27 10:17:54;;;;;;;5.35;3.85;;;;;;;;;;4964796;28;20247;-79
2024/03/27 10:20:22;;;;;;;4.75;4.00;;;;;;;;;;4980697;28;20222;-80
2024/03/27 10:22:48;;;;;;;4.28;3.90;;;;;;;;;;4954242;28;20317;-80
2024/03/27 10:25:16;;;;;;;4.55;3.70;;;;;;;;;;4945786;28;20313;-79
2024/03/27 10:27:41;;;;;;;4.18;3.72;;;;;;;;;;4965779;28;20237;-78
2024/03/27 10:30:11;;;;;;;4.03;3.58;;;;;;;;;;4982655;28;20300;-80
2024/03/27 10:32:39;;;;;;;7.43;3.95;;;;;;;;;;4996550;28;20225;-80
2024/03/27 10:35:05;;;;;;;4.18;3.88;;;;;;;;;;5000335;28;20233;-79
2024/03/27 10:37:31;;;;;;;4.25;3.85;;;;;;;;;;4985420;28;20244;-80
2024/03/27 10:40:02;;;;;;;6.72;3.80;;;;;;;;;;4968843;28;20673;-80
2024/03/27 10:42:28;;;;;;;4.15;3.75;;;;;;;;;;4990321;28;20229;-81
2024/03/27 10:44:57;;;;;;;4.07;3.67;;;;;;;;;;5000512;28;20233;-81
2024/03/27 10:47:23;;;;;;;4.80;3.70;;;;;;;;;;4957162;28;20241;-81
2024/03/27 10:49:50;;;;;;;4.30;3.85;;;;;;;;;;4983462;28;20685;-80
2024/03/27 10:52:17;;;;;;;4.63;3.92;;;;;;;;;;4968597;28;20300;-79
2024/03/27 10:54:43;;;;;;;5.95;3.80;;;;;;;;;;4970515;28;20225;-82
2024/03/27 10:57:11;;;;;;;4.10;3.50;;;;;;;;;;4959794;28;20272;-79
2024/03/27 10:59:43;;;;;;;9.73;3.88;;;;;;;;;;4986813;28;20657;-79
2024/03/27 11:02:09;;;;;;;5.13;3.50;;;;;;;;;;4989223;28;20621;-81
2024/03/27 11:04:40;;;;;;;4.00;3.47;;;;;;;;;;4989800;28;20271;-80
2024/03/27 11:07:10;;;;;;;3.95;3.55;;;;;;;;;;4985765;28;20233;-79
2024/03/27 11:09:36;;;;;;;5.65;4.05;;;;;;;;;;4957680;28;20249;-79
2024/03/27 11:12:02;;;;;;;7.05;5.15;;;;;;;;;;4973098;28;20229;-81
2024/03/27 11:14:28;;;;;;;4.20;3.78;;;;;;;;;;5004757;28;20229;-80
2024/03/27 11:17:02;;;;;;;3.58;3.28;;;;;;;;;;4986041;28;20230;-79
2024/03/27 11:19:35;;;;;;;3.58;3.28;;;;;;;;;;4982870;28;20221;-79
2024/03/27 11:22:02;;;;;;;4.13;3.72;;;;;;;;;;4970328;28;20287;-79
2024/03/27 11:24:31;;;;;;;4.53;3.42;;;;;;;;;;4989669;28;20670;-80
2024/03/27 11:27:00;;;;;;;3.70;3.15;;;;;;;;;;4988750;28;20236;-81
2024/03/27 11:29:26;;;;;;;5.05;3.45;;;;;;;;;;4985880;28;20218;-80
2024/03/27 11:31:52;;;;;;;4.13;3.72;;;;;;;;;;4958442;28;20210;-80
2024/03/27 11:34:21;;;;;;;4.18;3.70;;;;;;;;;;5000632;28;20251;-80
2024/03/27 11:36:46;;;;;;;4.07;3.60;;;;;;;;;;4986854;28;20241;-80
2024/03/27 11:39:15;;;;;;;4.75;4.00;;;;;;;;;;4967915;28;20275;-80
2024/03/27 11:41:43;;;;;;;4.40;4.00;;;;;;;;;;4972165;28;20221;-81
2024/03/27 11:44:12;;;;;;;4.88;4.32;;;;;;;;;;4987795;28;20231;-80
2024/03/27 11:46:37;;;;;;;4.90;4.40;;;;;;;;;;4959526;28;20229;-79
2024/03/27 11:49:03;;;;;;;5.45;4.20;;;;;;;;;;4998855;28;20239;-78
2024/03/27 11:51:29;;;;;;;4.55;4.10;;;;;;;;;;4973302;28;20229;-79
2024/03/27 11:53:56;;;;;;;5.85;4.30;;;;;;;;;;4954743;28;20234;-80
2024/03/27 11:56:35;;;;;;;4.93;4.15;;;;;;;;;;5002840;28;20226;-82
2024/03/27 11:59:01;;;;;;;6.72;4.32;;;;;;;;;;4971707;28;20257;-82
2024/03/27 12:01:26;;;;;;;5.05;4.50;;;;;;;;;;4960418;28;21480;-81
2024/03/27 12:03:54;;;;;;;4.88;4.40;;;;;;;;;;4993499;28;20726;-80
2024/03/27 12:06:20;;;;;;;5.60;4.25;;;;;;;;;;5001486;28;20221;-79
2024/03/27 12:08:47;;;;;;;4.88;4.47;;;;;;;;;;4968907;28;20781;-79
2024/03/27 12:11:21;;;;;;;4.55;3.75;;;;;;;;;;4980494;28;20214;-80
2024/03/27 12:13:50;;;;;;;4.47;4.07;;;;;;;;;;4989253;28;20299;-78
2024/03/27 12:16:15;;;;;;;4.40;4.00;;;;;;;;;;4968484;28;20253;-80
2024/03/27 12:18:42;;;;;;;5.18;4.03;;;;;;;;;;4956770;28;20229;-78
2024/03/27 12:21:11;;;;;;;4.28;3.88;;;;;;;;;;4988759;28;20233;-80
2024/03/27 12:23:38;;;;;;;5.65;4.60;;;;;;;;;;4955715;28;20237;-80
2024/03/27 12:26:05;;;;;;;4.22;3.83;;;;;;;;;;4966569;28;20234;-79
2024/03/27 12:28:30;;;;;;;4.63;3.85;;;;;;;;;;4978172;28;20720;-79
2024/03/27 12:30:56;;;;;;;4.97;4.03;;;;;;;;;;4976440;28;20221;-79
2024/03/27 12:33:23;;;;;;;4.65;3.75;;;;;;;;;;4985079;28;20228;-80
2024/03/27 12:35:49;;;;;;;5.57;4.00;;;;;;;;;;4984047;28;20228;-78
2024/03/27 12:38:14;;;;;;;4.15;3.75;;;;;;;;;;4993818;28;20782;-77
2024/03/27 12:40:40;;;;;;;4.40;4.00;;;;;;;;;;4970849;28;20739;-78
2024/03/27 12:43:08;;;;;;;5.25;4.57;;;;;;;;;;4966138;28;20438;-80
2024/03/27 12:45:34;;;;;;;4.47;3.90;;;;;;;;;;4971451;28;20260;-78
2024/03/27 12:48:02;;;;;;;5.55;4.50;;;;;;;;;;4983898;28;20225;-79
2024/03/27 12:50:30;;;;;;;4.53;4.10;;;;;;;;;;5005005;28;20220;-79
2024/03/27 12:52:56;;;;;;;5.05;3.88;;;;;;;;;;4976670;28;20248;-78
2024/03/27 12:55:23;;;;;;;4.43;3.65;;;;;;;;;;4982210;28;20244;-80
2024/03/27 12:57:53;;;;;;;5.10;3.70;;;;;;;;;;4970299;28;20229;-79
2024/03/27 13:00:21;;;;;;;4.25;3.72;;;;;;;;;;4999146;28;20214;-80
2024/03/27 13:02:49;;;;;;;4.65;4.18;;;;;;;;;;4990571;28;20229;-81
2024/03/27 13:05:17;;;;;;;4.72;4.18;;;;;;;;;;4996296;28;20222;-81
2024/03/27 13:07:45;;;;;;;5.38;4.10;;;;;;;;;;4999083;28;20281;-81
2024/03/27 13:10:15;;;;;;;4.28;3.70;;;;;;;;;;4998168;28;20221;-80
2024/03/27 13:12:43;;;;;;;4.60;4.20;;;;;;;;;;4956819;28;20661;-80
2024/03/27 13:15:09;;;;;;;4.82;4.28;;;;;;;;;;5002959;28;20573;-81
2024/03/27 13:17:36;;;;;;;5.05;4.18;;;;;;;;;;4988034;28;20229;-80
2024/03/27 13:20:03;;;;;;;4.95;4.30;;;;;;;;;;4972454;28;20229;-80
2024/03/27 13:22:29;;;;;;;6.10;4.32;;;;;;;;;;4991748;28;20237;-80
2024/03/27 13:24:56;;;;;;;5.90;4.40;;;;;;;;;;4974328;28;20567;-80
2024/03/27 13:27:27;;;;;;;4.13;3.72;;;;;;;;;;4991963;28;20220;-79
2024/03/27 13:29:52;;;;;;;5.00;4.32;;;;;;;;;;4975082;28;20218;-80
2024/03/27 13:32:18;;;;;;;4.57;3.85;;;;;;;;;;4994581;28;20221;-80
2024/03/27 13:34:46;;;;;;;3.97;3.58;;;;;;;;;;4996101;28;20289;-83
2024/03/27 13:37:11;;;;;;;4.10;3.65;;;;;;;;;;4977778;28;20360;-77
2024/03/27 13:39:38;;;;;;;4.35;3.55;;;;;;;;;;5005293;28;20345;-80
2024/03/27 13:42:04;;;;;;;4.78;3.95;;;;;;;;;;4992527;28;20232;-81
2024/03/27 13:44:32;;;;;;;4.43;3.53;;;;;;;;;;5006596;28;20244;-83
2024/03/27 13:46:57;;;;;;;4.00;3.55;;;;;;;;;;4975801;28;20690;-80
2024/03/27 13:49:25;;;;;;;4.22;3.83;;;;;;;;;;4972532;28;20222;-81
2024/03/27 13:51:50;;;;;;;5.07;4.22;;;;;;;;;;5000033;28;20757;-80
2024/03/27 13:54:16;;;;;;;4.53;4.05;;;;;;;;;;4973531;28;20264;-80
2024/03/27 13:56:41;;;;;;;8.30;4.07;;;;;;;;;;4998643;28;20257;-79
2024/03/27 13:59:09;;;;;;;7.78;3.88;;;;;;;;;;4981155;28;20218;-81
2024/03/27 14:01:34;;;;;;;4.85;3.42;;;;;;;;;;4974410;28;20309;-81
2024/03/27 14:04:02;;;;;;;4.60;4.20;;;;;;;;;;4982409;28;20244;-79
2024/03/27 14:06:28;;;;;;;4.20;3.80;;;;;;;;;;4990783;28;20225;-79
2024/03/27 14:08:53;;;;;;;4.50;3.35;;;;;;;;;;4999740;28;20242;-80
2024/03/27 14:11:26;;;;;;;4.55;4.15;;;;;;;;;;4974343;28;20217;-80
2024/03/27 14:13:52;;;;;;;4.07;3.50;;;;;;;;;;4979261;28;20233;-79
2024/03/27 14:16:22;;;;;;;5.32;4.35;;;;;;;;;;4992790;28;20230;-80
2024/03/27 14:18:50;;;;;;;4.10;3.50;;;;;;;;;;4979942;28;20225;-81
2024/03/27 14:21:16;;;;;;;4.55;4.10;;;;;;;;;;4985894;28;20586;-81
2024/03/27 14:23:44;;;;;;;4.53;4.13;;;;;;;;;;4961798;28;20228;-80
2024/03/27 14:26:10;;;;;;;5.35;4.18;;;;;;;;;;4974548;28;20782;-80
2024/03/27 14:28:36;;;;;;;4.28;3.58;;;;;;;;;;4991844;28;20229;-80
2024/03/27 14:31:03;;;;;;;4.18;3.78;;;;;;;;;;4981767;28;20219;-81
2024/03/27 14:33:28;;;;;;;6.35;4.10;;;;;;;;;;4960463;28;20654;-79
2024/03/27 14:35:57;;;;;;;4.72;3.65;;;;;;;;;;4976351;28;20324;-81
2024/03/27 14:38:22;;;;;;;4.35;3.95;;;;;;;;;;4992781;28;20230;-82